createdAt,value
2019-01-20T11:34:50.507Z,747.088
2019-01-20T11:36:50.583Z,747.088
2019-01-20T11:38:50.271Z,747.088
2019-01-20T11:40:50.619Z,747.088
2019-01-20T11:42:50.263Z,747.088
2019-01-20T11:44:49.904Z,747.088
2019-01-20T11:46:50.391Z,747.088
2019-01-20T11:48:50.806Z,747.088
2019-01-20T11:50:50.434Z,747.088
2019-01-20T11:52:50.062Z,747.088
2019-01-20T11:54:50.378Z,747.088
2019-01-20T11:56:50.937Z,747.088
2019-01-20T11:58:50.348Z,747.088
2019-01-20T12:00:50.620Z,747.088
2019-01-20T12:02:50.089Z,747.088
2019-01-20T12:04:50.006Z,747.088
2019-01-20T12:06:50.209Z,380.298
2019-01-20T12:08:50.416Z,0.188
2019-01-20T12:10:50.221Z,0.217
2019-01-20T12:12:50.785Z,0.200
2019-01-20T12:14:50.256Z,0.211
2019-01-20T12:16:50.483Z,0.188
2019-01-20T12:18:50.892Z,0.160
2019-01-20T12:20:50.240Z,0.182
2019-01-20T12:22:50.680Z,0.205
2019-01-20T12:24:50.271Z,0.137
2019-01-20T12:26:50.600Z,0.143
2019-01-20T12:28:50.123Z,0.171
2019-01-20T12:30:50.539Z,0.177
2019-01-20T12:32:50.125Z,0.194
2019-01-20T12:34:49.817Z,0.154
2019-01-20T12:36:50.073Z,0.125
2019-01-20T12:38:50.464Z,0.171
2019-01-20T12:40:50.726Z,0.148
2019-01-20T12:42:50.131Z,0.217
2019-01-20T12:44:50.729Z,0.125
2019-01-20T12:46:50.032Z,747.088
2019-01-20T12:48:50.327Z,747.088
2019-01-20T12:50:50.662Z,747.088
2019-01-20T12:52:50.296Z,747.088
2019-01-20T12:54:50.743Z,747.088
2019-01-20T12:56:50.667Z,747.088
2019-01-20T13:22:49.877Z,747.088
2019-01-20T13:24:50.206Z,747.088
2019-01-20T13:26:50.064Z,747.088
2019-01-20T13:28:50.768Z,747.088
2019-01-20T13:30:50.746Z,747.088
2019-01-20T13:32:50.254Z,747.088
2019-01-20T13:34:49.945Z,747.088
2019-01-20T13:36:50.264Z,747.088
2019-01-20T13:38:50.543Z,747.088
2019-01-20T13:40:50.072Z,747.088
2019-01-20T13:42:50.624Z,433.810
2019-01-20T13:44:50.068Z,0.154
2019-01-20T13:46:49.986Z,747.088
2019-01-20T13:48:50.063Z,0.125
2019-01-20T13:50:50.376Z,0.188
2019-01-20T13:52:50.798Z,0.131
2019-01-20T13:54:50.192Z,0.137
2019-01-20T13:56:50.381Z,0.120
2019-01-20T13:58:50.596Z,0.120
2019-01-20T14:00:50.801Z,0.160
2019-01-20T14:02:50.456Z,0.148
2019-01-20T14:04:50.400Z,0.228
2019-01-20T14:06:50.434Z,0.137
2019-01-20T14:08:50.040Z,0.177
2019-01-20T14:10:50.280Z,747.088
2019-01-20T14:12:50.657Z,747.088
